sensor_id;sensor_type;location;lat;lon;timestamp;P1;durP1;ratioP1;P2;durP2;ratioP2
11568;SDS011;5840;46.894;15.542;2024-02-21T00:01:29;3.30;;;3.00;;
11568;SDS011;5840;46.894;15.542;2024-02-21T00:03:55;3.63;;;3.27;;
11568;SDS011;5840;46.894;15.542;2024-02-21T00:06:21;3.20;;;3.00;;
11568;SDS011;5840;46.894;15.542;2024-02-21T00:08:48;3.47;;;3.17;;
11568;SDS011;5840;46.894;15.542;2024-02-21T00:11:15;3.57;;;3.20;;
11568;SDS011;5840;46.894;15.542;2024-02-21T00:21:10;3.43;;;3.20;;
11568;SDS011;5840;46.894;15.542;2024-02-21T00:23:42;3.50;;;3.20;;
11568;SDS011;5840;46.894;15.542;2024-02-21T00:26:09;3.67;;;3.37;;
11568;SDS011;5840;46.894;15.542;2024-02-21T00:28:35;3.80;;;3.50;;
11568;SDS011;5840;46.894;15.542;2024-02-21T00:31:01;4.30;;;4.00;;
11568;SDS011;5840;46.894;15.542;2024-02-21T00:33:27;3.63;;;3.43;;
11568;SDS011;5840;46.894;15.542;2024-02-21T00:35:53;3.73;;;3.43;;
11568;SDS011;5840;46.894;15.542;2024-02-21T00:38:20;4.73;;;3.40;;
11568;SDS011;5840;46.894;15.542;2024-02-21T00:45:49;4.17;;;3.87;;
11568;SDS011;5840;46.894;15.542;2024-02-21T00:48:15;3.70;;;3.40;;
11568;SDS011;5840;46.894;15.542;2024-02-21T00:50:41;3.80;;;3.50;;
11568;SDS011;5840;46.894;15.542;2024-02-21T00:53:07;4.00;;;3.70;;
11568;SDS011;5840;46.894;15.542;2024-02-21T00:55:35;3.97;;;3.67;;
11568;SDS011;5840;46.894;15.542;2024-02-21T00:58:01;3.53;;;3.33;;
11568;SDS011;5840;46.894;15.542;2024-02-21T01:00:27;4.10;;;3.70;;
11568;SDS011;5840;46.894;15.542;2024-02-21T01:02:54;3.93;;;3.63;;
11568;SDS011;5840;46.894;15.542;2024-02-21T01:10:23;4.80;;;4.40;;
11568;SDS011;5840;46.894;15.542;2024-02-21T01:12:49;3.90;;;3.60;;
11568;SDS011;5840;46.894;15.542;2024-02-21T01:15:15;4.10;;;3.70;;
11568;SDS011;5840;46.894;15.542;2024-02-21T01:17:42;6.07;;;3.57;;
11568;SDS011;5840;46.894;15.542;2024-02-21T01:20:08;3.87;;;3.57;;
11568;SDS011;5840;46.894;15.542;2024-02-21T01:22:35;3.87;;;3.57;;
11568;SDS011;5840;46.894;15.542;2024-02-21T01:25:01;4.03;;;3.73;;
11568;SDS011;5840;46.894;15.542;2024-02-21T01:27:28;4.07;;;3.77;;
11568;SDS011;5840;46.894;15.542;2024-02-21T01:37:23;4.80;;;4.30;;
11568;SDS011;5840;46.894;15.542;2024-02-21T01:39:49;5.53;;;5.03;;
11568;SDS011;5840;46.894;15.542;2024-02-21T01:42:15;5.03;;;4.63;;
11568;SDS011;5840;46.894;15.542;2024-02-21T01:44:42;4.57;;;4.17;;
11568;SDS011;5840;46.894;15.542;2024-02-21T01:47:08;5.43;;;4.83;;
11568;SDS011;5840;46.894;15.542;2024-02-21T01:49:35;4.83;;;4.43;;
11568;SDS011;5840;46.894;15.542;2024-02-21T01:52:02;4.43;;;4.03;;
11568;SDS011;5840;46.894;15.542;2024-02-21T01:54:29;4.30;;;4.00;;
11568;SDS011;5840;46.894;15.542;2024-02-21T02:04:24;4.60;;;4.20;;
11568;SDS011;5840;46.894;15.542;2024-02-21T02:06:52;4.53;;;4.13;;
11568;SDS011;5840;46.894;15.542;2024-02-21T02:09:20;4.37;;;4.07;;
11568;SDS011;5840;46.894;15.542;2024-02-21T02:11:46;3.83;;;3.53;;
11568;SDS011;5840;46.894;15.542;2024-02-21T02:14:12;4.00;;;3.70;;
11568;SDS011;5840;46.894;15.542;2024-02-21T02:16:39;4.60;;;4.20;;
11568;SDS011;5840;46.894;15.542;2024-02-21T02:19:05;4.80;;;4.27;;
11568;SDS011;5840;46.894;15.542;2024-02-21T02:21:34;5.73;;;4.67;;
11568;SDS011;5840;46.894;15.542;2024-02-21T02:31:28;4.43;;;3.57;;
11568;SDS011;5840;46.894;15.542;2024-02-21T02:33:54;3.93;;;3.63;;
11568;SDS011;5840;46.894;15.542;2024-02-21T02:36:21;3.97;;;3.67;;
11568;SDS011;5840;46.894;15.542;2024-02-21T02:38:47;3.63;;;3.33;;
11568;SDS011;5840;46.894;15.542;2024-02-21T02:41:13;5.60;;;4.30;;
11568;SDS011;5840;46.894;15.542;2024-02-21T02:43:39;4.00;;;3.70;;
11568;SDS011;5840;46.894;15.542;2024-02-21T02:46:05;4.00;;;3.50;;
11568;SDS011;5840;46.894;15.542;2024-02-21T02:48:32;3.90;;;3.60;;
11568;SDS011;5840;46.894;15.542;2024-02-21T02:58:26;4.23;;;3.83;;
11568;SDS011;5840;46.894;15.542;2024-02-21T03:00:53;4.20;;;3.80;;
11568;SDS011;5840;46.894;15.542;2024-02-21T03:03:19;4.13;;;3.60;;
11568;SDS011;5840;46.894;15.542;2024-02-21T03:05:45;4.13;;;3.73;;
11568;SDS011;5840;46.894;15.542;2024-02-21T03:08:12;4.00;;;3.70;;
11568;SDS011;5840;46.894;15.542;2024-02-21T03:10:38;4.23;;;3.83;;
11568;SDS011;5840;46.894;15.542;2024-02-21T03:13:04;3.80;;;3.50;;
11568;SDS011;5840;46.894;15.542;2024-02-21T03:15:31;3.80;;;3.50;;
11568;SDS011;5840;46.894;15.542;2024-02-21T03:25:26;3.83;;;3.47;;
11568;SDS011;5840;46.894;15.542;2024-02-21T03:27:52;3.87;;;3.30;;
11568;SDS011;5840;46.894;15.542;2024-02-21T03:30:19;7.80;;;7.10;;
11568;SDS011;5840;46.894;15.542;2024-02-21T03:32:45;3.13;;;2.83;;
11568;SDS011;5840;46.894;15.542;2024-02-21T03:35:12;3.90;;;3.53;;
11568;SDS011;5840;46.894;15.542;2024-02-21T03:37:38;3.23;;;2.93;;
11568;SDS011;5840;46.894;15.542;2024-02-21T03:40:06;4.30;;;4.00;;
11568;SDS011;5840;46.894;15.542;2024-02-21T03:42:34;3.93;;;3.63;;
11568;SDS011;5840;46.894;15.542;2024-02-21T03:52:29;5.13;;;3.70;;
11568;SDS011;5840;46.894;15.542;2024-02-21T03:54:55;4.10;;;3.80;;
11568;SDS011;5840;46.894;15.542;2024-02-21T03:57:22;4.70;;;3.83;;
11568;SDS011;5840;46.894;15.542;2024-02-21T03:59:49;3.97;;;3.60;;
11568;SDS011;5840;46.894;15.542;2024-02-21T04:02:16;4.03;;;3.73;;
11568;SDS011;5840;46.894;15.542;2024-02-21T04:04:42;3.93;;;3.63;;
11568;SDS011;5840;46.894;15.542;2024-02-21T04:07:11;3.90;;;3.60;;
11568;SDS011;5840;46.894;15.542;2024-02-21T04:09:38;4.17;;;3.60;;
11568;SDS011;5840;46.894;15.542;2024-02-21T04:19:34;4.20;;;3.80;;
11568;SDS011;5840;46.894;15.542;2024-02-21T04:22:00;5.10;;;3.77;;
11568;SDS011;5840;46.894;15.542;2024-02-21T04:24:26;4.10;;;3.80;;
11568;SDS011;5840;46.894;15.542;2024-02-21T04:26:52;7.07;;;4.10;;
11568;SDS011;5840;46.894;15.542;2024-02-21T04:29:18;5.07;;;4.20;;
11568;SDS011;5840;46.894;15.542;2024-02-21T04:31:45;4.30;;;3.77;;
11568;SDS011;5840;46.894;15.542;2024-02-21T04:34:11;4.70;;;4.30;;
11568;SDS011;5840;46.894;15.542;2024-02-21T04:36:38;4.73;;;4.33;;
11568;SDS011;5840;46.894;15.542;2024-02-21T04:46:28;4.73;;;4.33;;
11568;SDS011;5840;46.894;15.542;2024-02-21T04:48:54;4.40;;;4.00;;
11568;SDS011;5840;46.894;15.542;2024-02-21T04:51:20;4.57;;;4.10;;
11568;SDS011;5840;46.894;15.542;2024-02-21T04:53:46;4.37;;;4.00;;
11568;SDS011;5840;46.894;15.542;2024-02-21T04:56:13;5.23;;;4.83;;
11568;SDS011;5840;46.894;15.542;2024-02-21T04:58:39;5.33;;;4.83;;
11568;SDS011;5840;46.894;15.542;2024-02-21T05:01:05;6.27;;;5.77;;
11568;SDS011;5840;46.894;15.542;2024-02-21T05:03:33;6.13;;;5.33;;
11568;SDS011;5840;46.894;15.542;2024-02-21T05:13:23;6.50;;;5.90;;
11568;SDS011;5840;46.894;15.542;2024-02-21T05:15:49;6.33;;;5.73;;
11568;SDS011;5840;46.894;15.542;2024-02-21T05:18:15;6.47;;;5.97;;
11568;SDS011;5840;46.894;15.542;2024-02-21T05:20:42;6.37;;;5.83;;
11568;SDS011;5840;46.894;15.542;2024-02-21T05:23:08;6.23;;;5.67;;
11568;SDS011;5840;46.894;15.542;2024-02-21T05:25:34;5.97;;;5.47;;
11568;SDS011;5840;46.894;15.542;2024-02-21T05:28:00;5.17;;;4.77;;
11568;SDS011;5840;46.894;15.542;2024-02-21T05:30:29;4.97;;;4.57;;
11568;SDS011;5840;46.894;15.542;2024-02-21T05:37:59;6.70;;;6.10;;
11568;SDS011;5840;46.894;15.542;2024-02-21T05:40:25;7.17;;;6.57;;
11568;SDS011;5840;46.894;15.542;2024-02-21T05:42:52;6.60;;;6.10;;
11568;SDS011;5840;46.894;15.542;2024-02-21T05:45:18;7.10;;;6.50;;
11568;SDS011;5840;46.894;15.542;2024-02-21T05:47:44;6.37;;;5.87;;
11568;SDS011;5840;46.894;15.542;2024-02-21T05:50:10;6.80;;;6.27;;
11568;SDS011;5840;46.894;15.542;2024-02-21T05:52:36;5.93;;;5.37;;
11568;SDS011;5840;46.894;15.542;2024-02-21T05:55:04;5.17;;;4.77;;
11568;SDS011;5840;46.894;15.542;2024-02-21T06:05:00;6.13;;;5.63;;
11568;SDS011;5840;46.894;15.542;2024-02-21T06:07:27;6.23;;;5.73;;
11568;SDS011;5840;46.894;15.542;2024-02-21T06:09:53;5.63;;;5.13;;
11568;SDS011;5840;46.894;15.542;2024-02-21T06:12:19;5.40;;;4.90;;
11568;SDS011;5840;46.894;15.542;2024-02-21T06:14:45;6.03;;;5.60;;
11568;SDS011;5840;46.894;15.542;2024-02-21T06:17:11;5.43;;;5.03;;
11568;SDS011;5840;46.894;15.542;2024-02-21T06:19:39;5.20;;;4.80;;
11568;SDS011;5840;46.894;15.542;2024-02-21T06:22:06;6.37;;;5.87;;
11568;SDS011;5840;46.894;15.542;2024-02-21T06:32:02;4.80;;;4.40;;
11568;SDS011;5840;46.894;15.542;2024-02-21T06:34:29;4.30;;;4.00;;
11568;SDS011;5840;46.894;15.542;2024-02-21T06:36:55;4.50;;;4.10;;
11568;SDS011;5840;46.894;15.542;2024-02-21T06:39:21;4.60;;;4.20;;
11568;SDS011;5840;46.894;15.542;2024-02-21T06:41:48;4.97;;;4.47;;
11568;SDS011;5840;46.894;15.542;2024-02-21T06:44:15;6.53;;;4.70;;
11568;SDS011;5840;46.894;15.542;2024-02-21T06:46:41;4.87;;;4.47;;
11568;SDS011;5840;46.894;15.542;2024-02-21T06:49:08;4.33;;;3.90;;
11568;SDS011;5840;46.894;15.542;2024-02-21T06:56:44;3.63;;;3.33;;
11568;SDS011;5840;46.894;15.542;2024-02-21T06:59:10;3.63;;;3.33;;
11568;SDS011;5840;46.894;15.542;2024-02-21T07:01:44;3.77;;;3.53;;
11568;SDS011;5840;46.894;15.542;2024-02-21T07:04:10;5.20;;;3.80;;
11568;SDS011;5840;46.894;15.542;2024-02-21T07:06:36;4.70;;;4.40;;
11568;SDS011;5840;46.894;15.542;2024-02-21T07:09:03;5.57;;;4.87;;
11568;SDS011;5840;46.894;15.542;2024-02-21T07:11:29;9.03;;;7.53;;
11568;SDS011;5840;46.894;15.542;2024-02-21T07:13:56;8.97;;;8.07;;
11568;SDS011;5840;46.894;15.542;2024-02-21T07:23:50;6.77;;;5.80;;
11568;SDS011;5840;46.894;15.542;2024-02-21T07:26:16;6.10;;;5.50;;
11568;SDS011;5840;46.894;15.542;2024-02-21T07:28:42;6.17;;;5.57;;
11568;SDS011;5840;46.894;15.542;2024-02-21T07:31:09;5.63;;;5.13;;
11568;SDS011;5840;46.894;15.542;2024-02-21T07:33:35;5.27;;;4.77;;
11568;SDS011;5840;46.894;15.542;2024-02-21T07:36:01;7.20;;;6.50;;
11568;SDS011;5840;46.894;15.542;2024-02-21T07:38:31;7.37;;;6.67;;
11568;SDS011;5840;46.894;15.542;2024-02-21T07:40:58;7.93;;;7.13;;
11568;SDS011;5840;46.894;15.542;2024-02-21T07:48:27;8.00;;;7.20;;
11568;SDS011;5840;46.894;15.542;2024-02-21T07:50:54;7.93;;;7.13;;
11568;SDS011;5840;46.894;15.542;2024-02-21T07:53:20;10.63;;;9.63;;
11568;SDS011;5840;46.894;15.542;2024-02-21T07:55:46;7.27;;;6.00;;
11568;SDS011;5840;46.894;15.542;2024-02-21T07:58:12;7.20;;;6.50;;
11568;SDS011;5840;46.894;15.542;2024-02-21T08:00:38;6.87;;;6.20;;
11568;SDS011;5840;46.894;15.542;2024-02-21T08:03:04;6.70;;;6.10;;
11568;SDS011;5840;46.894;15.542;2024-02-21T08:05:33;7.23;;;6.63;;
11568;SDS011;5840;46.894;15.542;2024-02-21T08:13:32;9.63;;;8.67;;
11568;SDS011;5840;46.894;15.542;2024-02-21T08:15:58;8.63;;;7.83;;
11568;SDS011;5840;46.894;15.542;2024-02-21T08:18:25;7.50;;;6.80;;
11568;SDS011;5840;46.894;15.542;2024-02-21T08:20:51;7.83;;;7.03;;
11568;SDS011;5840;46.894;15.542;2024-02-21T08:23:17;6.77;;;6.20;;
11568;SDS011;5840;46.894;15.542;2024-02-21T08:25:44;13.47;;;12.07;;
11568;SDS011;5840;46.894;15.542;2024-02-21T08:28:10;8.97;;;8.17;;
11568;SDS011;5840;46.894;15.542;2024-02-21T08:30:39;7.63;;;6.67;;
11568;SDS011;5840;46.894;15.542;2024-02-21T08:38:08;4.70;;;4.30;;
11568;SDS011;5840;46.894;15.542;2024-02-21T08:40:34;6.00;;;5.40;;
11568;SDS011;5840;46.894;15.542;2024-02-21T08:43:00;5.53;;;5.13;;
11568;SDS011;5840;46.894;15.542;2024-02-21T08:45:26;6.73;;;5.20;;
11568;SDS011;5840;46.894;15.542;2024-02-21T08:47:52;5.60;;;5.00;;
11568;SDS011;5840;46.894;15.542;2024-02-21T08:50:19;5.53;;;5.00;;
11568;SDS011;5840;46.894;15.542;2024-02-21T08:52:45;5.90;;;5.30;;
11568;SDS011;5840;46.894;15.542;2024-02-21T08:55:12;5.23;;;4.73;;
11568;SDS011;5840;46.894;15.542;2024-02-21T09:05:06;5.73;;;4.40;;
11568;SDS011;5840;46.894;15.542;2024-02-21T09:07:33;4.93;;;4.53;;
11568;SDS011;5840;46.894;15.542;2024-02-21T09:09:59;4.90;;;4.50;;
11568;SDS011;5840;46.894;15.542;2024-02-21T09:12:26;4.30;;;4.00;;
11568;SDS011;5840;46.894;15.542;2024-02-21T09:14:52;4.63;;;4.23;;
11568;SDS011;5840;46.894;15.542;2024-02-21T09:17:18;4.70;;;4.30;;
11568;SDS011;5840;46.894;15.542;2024-02-21T09:19:45;5.47;;;4.23;;
11568;SDS011;5840;46.894;15.542;2024-02-21T09:22:13;4.80;;;4.40;;
11568;SDS011;5840;46.894;15.542;2024-02-21T09:32:03;4.20;;;3.80;;
11568;SDS011;5840;46.894;15.542;2024-02-21T09:34:29;4.47;;;3.73;;
11568;SDS011;5840;46.894;15.542;2024-02-21T09:36:56;3.90;;;3.60;;
11568;SDS011;5840;46.894;15.542;2024-02-21T09:39:22;3.57;;;3.27;;
11568;SDS011;5840;46.894;15.542;2024-02-21T09:41:50;4.23;;;3.83;;
11568;SDS011;5840;46.894;15.542;2024-02-21T09:44:20;4.20;;;3.80;;
11568;SDS011;5840;46.894;15.542;2024-02-21T09:46:50;5.07;;;4.00;;
11568;SDS011;5840;46.894;15.542;2024-02-21T09:49:24;4.03;;;3.70;;
11568;SDS011;5840;46.894;15.542;2024-02-21T09:57:28;3.90;;;3.53;;
11568;SDS011;5840;46.894;15.542;2024-02-21T09:59:55;3.87;;;3.40;;
11568;SDS011;5840;46.894;15.542;2024-02-21T10:02:22;3.73;;;3.43;;
11568;SDS011;5840;46.894;15.542;2024-02-21T10:04:48;3.37;;;3.00;;
11568;SDS011;5840;46.894;15.542;2024-02-21T10:07:15;4.50;;;3.47;;
11568;SDS011;5840;46.894;15.542;2024-02-21T10:09:41;3.73;;;2.90;;
11568;SDS011;5840;46.894;15.542;2024-02-21T10:12:10;3.20;;;2.90;;
11568;SDS011;5840;46.894;15.542;2024-02-21T10:14:38;3.93;;;3.20;;
11568;SDS011;5840;46.894;15.542;2024-02-21T10:22:07;3.80;;;3.50;;
11568;SDS011;5840;46.894;15.542;2024-02-21T10:24:34;3.50;;;3.20;;
11568;SDS011;5840;46.894;15.542;2024-02-21T10:27:03;3.70;;;3.40;;
11568;SDS011;5840;46.894;15.542;2024-02-21T10:29:33;6.30;;;3.43;;
11568;SDS011;5840;46.894;15.542;2024-02-21T10:32:06;3.80;;;3.50;;
11568;SDS011;5840;46.894;15.542;2024-02-21T10:34:33;3.93;;;3.63;;
11568;SDS011;5840;46.894;15.542;2024-02-21T10:37:00;3.27;;;2.80;;
11568;SDS011;5840;46.894;15.542;2024-02-21T10:43:31;3.30;;;3.00;;
11568;SDS011;5840;46.894;15.542;2024-02-21T10:46:03;3.10;;;2.90;;
11568;SDS011;5840;46.894;15.542;2024-02-21T10:48:41;3.17;;;2.90;;
11568;SDS011;5840;46.894;15.542;2024-02-21T10:51:12;2.90;;;2.70;;
11568;SDS011;5840;46.894;15.542;2024-02-21T10:53:44;3.27;;;2.70;;
11568;SDS011;5840;46.894;15.542;2024-02-21T10:56:15;3.70;;;3.40;;
11568;SDS011;5840;46.894;15.542;2024-02-21T10:58:49;2.93;;;2.63;;
11568;SDS011;5840;46.894;15.542;2024-02-21T11:07:35;3.20;;;2.97;;
11568;SDS011;5840;46.894;15.542;2024-02-21T11:10:03;3.07;;;2.87;;
11568;SDS011;5840;46.894;15.542;2024-02-21T11:12:32;3.07;;;2.80;;
11568;SDS011;5840;46.894;15.542;2024-02-21T11:15:05;4.20;;;3.27;;
11568;SDS011;5840;46.894;15.542;2024-02-21T11:17:31;4.30;;;4.00;;
11568;SDS011;5840;46.894;15.542;2024-02-21T11:19:58;3.40;;;3.20;;
11568;SDS011;5840;46.894;15.542;2024-02-21T11:22:24;3.90;;;3.60;;
11568;SDS011;5840;46.894;15.542;2024-02-21T11:24:55;3.50;;;3.20;;
11568;SDS011;5840;46.894;15.542;2024-02-21T11:32:36;2.67;;;2.47;;
11568;SDS011;5840;46.894;15.542;2024-02-21T11:35:02;3.30;;;2.73;;
11568;SDS011;5840;46.894;15.542;2024-02-21T11:37:30;4.13;;;3.77;;
11568;SDS011;5840;46.894;15.542;2024-02-21T11:39:58;5.07;;;4.67;;
11568;SDS011;5840;46.894;15.542;2024-02-21T11:42:25;4.07;;;3.77;;
11568;SDS011;5840;46.894;15.542;2024-02-21T11:44:51;2.93;;;2.73;;
11568;SDS011;5840;46.894;15.542;2024-02-21T11:47:18;3.27;;;2.70;;
11568;SDS011;5840;46.894;15.542;2024-02-21T11:49:45;3.70;;;2.80;;
11568;SDS011;5840;46.894;15.542;2024-02-21T11:59:44;3.97;;;3.30;;
11568;SDS011;5840;46.894;15.542;2024-02-21T12:02:11;3.60;;;3.30;;
11568;SDS011;5840;46.894;15.542;2024-02-21T12:04:37;3.27;;;2.90;;
11568;SDS011;5840;46.894;15.542;2024-02-21T12:07:04;2.87;;;2.60;;
11568;SDS011;5840;46.894;15.542;2024-02-21T12:09:30;2.50;;;2.40;;
11568;SDS011;5840;46.894;15.542;2024-02-21T12:11:57;3.37;;;3.00;;
11568;SDS011;5840;46.894;15.542;2024-02-21T12:14:24;3.77;;;2.77;;
11568;SDS011;5840;46.894;15.542;2024-02-21T12:16:52;4.00;;;3.60;;
11568;SDS011;5840;46.894;15.542;2024-02-21T12:26:42;2.20;;;2.00;;
11568;SDS011;5840;46.894;15.542;2024-02-21T12:29:08;2.27;;;2.07;;
11568;SDS011;5840;46.894;15.542;2024-02-21T12:31:34;2.03;;;1.93;;
11568;SDS011;5840;46.894;15.542;2024-02-21T12:34:01;3.80;;;3.10;;
11568;SDS011;5840;46.894;15.542;2024-02-21T12:36:27;1.90;;;1.80;;
11568;SDS011;5840;46.894;15.542;2024-02-21T12:38:53;1.63;;;1.60;;
11568;SDS011;5840;46.894;15.542;2024-02-21T12:41:20;2.80;;;1.87;;
11568;SDS011;5840;46.894;15.542;2024-02-21T12:43:46;3.43;;;2.10;;
11568;SDS011;5840;46.894;15.542;2024-02-21T12:53:30;4.40;;;2.40;;
11568;SDS011;5840;46.894;15.542;2024-02-21T12:55:57;2.47;;;2.37;;
11568;SDS011;5840;46.894;15.542;2024-02-21T12:58:23;2.10;;;2.00;;
11568;SDS011;5840;46.894;15.542;2024-02-21T13:00:49;2.90;;;2.70;;
11568;SDS011;5840;46.894;15.542;2024-02-21T13:03:15;2.90;;;2.70;;
11568;SDS011;5840;46.894;15.542;2024-02-21T13:05:41;2.67;;;2.50;;
11568;SDS011;5840;46.894;15.542;2024-02-21T13:08:08;2.93;;;2.73;;
11568;SDS011;5840;46.894;15.542;2024-02-21T13:10:35;2.47;;;2.27;;
11568;SDS011;5840;46.894;15.542;2024-02-21T13:18:05;1.97;;;1.80;;
11568;SDS011;5840;46.894;15.542;2024-02-21T13:20:31;2.43;;;2.30;;
11568;SDS011;5840;46.894;15.542;2024-02-21T13:22:57;2.20;;;2.00;;
11568;SDS011;5840;46.894;15.542;2024-02-21T13:25:23;2.83;;;2.13;;
11568;SDS011;5840;46.894;15.542;2024-02-21T13:27:49;2.50;;;2.30;;
11568;SDS011;5840;46.894;15.542;2024-02-21T13:30:16;2.00;;;1.90;;
11568;SDS011;5840;46.894;15.542;2024-02-21T13:32:43;1.90;;;1.80;;
11568;SDS011;5840;46.894;15.542;2024-02-21T13:35:11;2.23;;;2.03;;
11568;SDS011;5840;46.894;15.542;2024-02-21T13:45:08;2.13;;;2.00;;
11568;SDS011;5840;46.894;15.542;2024-02-21T13:47:35;3.63;;;2.27;;
11568;SDS011;5840;46.894;15.542;2024-02-21T13:50:01;3.50;;;2.10;;
11568;SDS011;5840;46.894;15.542;2024-02-21T13:52:30;2.00;;;1.90;;
11568;SDS011;5840;46.894;15.542;2024-02-21T13:54:56;2.40;;;2.17;;
11568;SDS011;5840;46.894;15.542;2024-02-21T13:57:22;1.83;;;1.70;;
11568;SDS011;5840;46.894;15.542;2024-02-21T13:59:48;2.07;;;1.97;;
11568;SDS011;5840;46.894;15.542;2024-02-21T14:02:17;1.63;;;1.63;;
11568;SDS011;5840;46.894;15.542;2024-02-21T14:09:47;2.30;;;2.00;;
11568;SDS011;5840;46.894;15.542;2024-02-21T14:12:13;2.17;;;2.00;;
11568;SDS011;5840;46.894;15.542;2024-02-21T14:14:41;2.20;;;2.00;;
11568;SDS011;5840;46.894;15.542;2024-02-21T14:17:09;2.10;;;2.00;;
11568;SDS011;5840;46.894;15.542;2024-02-21T14:19:35;3.50;;;3.20;;
11568;SDS011;5840;46.894;15.542;2024-02-21T14:22:01;5.87;;;5.37;;
11568;SDS011;5840;46.894;15.542;2024-02-21T14:24:27;3.40;;;3.10;;
11568;SDS011;5840;46.894;15.542;2024-02-21T14:26:54;2.70;;;2.50;;
11568;SDS011;5840;46.894;15.542;2024-02-21T14:36:44;2.37;;;2.20;;
11568;SDS011;5840;46.894;15.542;2024-02-21T14:39:10;2.30;;;2.20;;
11568;SDS011;5840;46.894;15.542;2024-02-21T14:41:37;2.50;;;2.30;;
11568;SDS011;5840;46.894;15.542;2024-02-21T14:44:04;2.27;;;2.07;;
11568;SDS011;5840;46.894;15.542;2024-02-21T14:46:30;1.93;;;1.83;;
11568;SDS011;5840;46.894;15.542;2024-02-21T14:48:57;2.47;;;2.27;;
11568;SDS011;5840;46.894;15.542;2024-02-21T14:51:23;3.73;;;2.50;;
11568;SDS011;5840;46.894;15.542;2024-02-21T14:53:50;2.87;;;2.00;;
11568;SDS011;5840;46.894;15.542;2024-02-21T15:01:15;5.30;;;2.57;;
11568;SDS011;5840;46.894;15.542;2024-02-21T15:03:41;2.20;;;2.10;;
11568;SDS011;5840;46.894;15.542;2024-02-21T15:06:08;2.20;;;1.83;;
11568;SDS011;5840;46.894;15.542;2024-02-21T15:08:34;2.50;;;2.30;;
11568;SDS011;5840;46.894;15.542;2024-02-21T15:11:01;2.63;;;2.40;;
11568;SDS011;5840;46.894;15.542;2024-02-21T15:13:27;3.10;;;2.90;;
11568;SDS011;5840;46.894;15.542;2024-02-21T15:15:55;3.10;;;2.90;;
11568;SDS011;5840;46.894;15.542;2024-02-21T15:18:22;3.60;;;3.40;;
11568;SDS011;5840;46.894;15.542;2024-02-21T15:28:12;3.30;;;3.00;;
11568;SDS011;5840;46.894;15.542;2024-02-21T15:30:38;3.73;;;3.33;;
11568;SDS011;5840;46.894;15.542;2024-02-21T15:33:05;3.40;;;3.10;;
11568;SDS011;5840;46.894;15.542;2024-02-21T15:35:31;3.00;;;2.80;;
11568;SDS011;5840;46.894;15.542;2024-02-21T15:37:58;2.90;;;2.70;;
11568;SDS011;5840;46.894;15.542;2024-02-21T15:40:25;3.73;;;2.90;;
11568;SDS011;5840;46.894;15.542;2024-02-21T15:42:51;2.90;;;2.70;;
11568;SDS011;5840;46.894;15.542;2024-02-21T15:45:19;3.10;;;2.90;;
11568;SDS011;5840;46.894;15.542;2024-02-21T15:52:50;3.60;;;3.30;;
11568;SDS011;5840;46.894;15.542;2024-02-21T15:55:16;3.47;;;3.00;;
11568;SDS011;5840;46.894;15.542;2024-02-21T15:57:42;3.23;;;2.97;;
11568;SDS011;5840;46.894;15.542;2024-02-21T16:00:09;4.63;;;3.43;;
11568;SDS011;5840;46.894;15.542;2024-02-21T16:02:37;3.93;;;3.53;;
11568;SDS011;5840;46.894;15.542;2024-02-21T16:05:05;3.70;;;3.40;;
11568;SDS011;5840;46.894;15.542;2024-02-21T16:07:34;4.33;;;3.27;;
11568;SDS011;5840;46.894;15.542;2024-02-21T16:10:01;3.97;;;3.60;;
11568;SDS011;5840;46.894;15.542;2024-02-21T16:17:30;4.20;;;3.80;;
11568;SDS011;5840;46.894;15.542;2024-02-21T16:19:57;3.53;;;3.23;;
11568;SDS011;5840;46.894;15.542;2024-02-21T16:22:23;4.10;;;3.80;;
11568;SDS011;5840;46.894;15.542;2024-02-21T16:24:49;3.37;;;3.17;;
11568;SDS011;5840;46.894;15.542;2024-02-21T16:27:18;3.53;;;3.23;;
11568;SDS011;5840;46.894;15.542;2024-02-21T16:29:45;4.20;;;3.90;;
11568;SDS011;5840;46.894;15.542;2024-02-21T16:32:12;4.03;;;3.63;;
11568;SDS011;5840;46.894;15.542;2024-02-21T16:34:39;4.67;;;3.50;;
11568;SDS011;5840;46.894;15.542;2024-02-21T16:42:09;3.87;;;3.57;;
11568;SDS011;5840;46.894;15.542;2024-02-21T16:44:35;4.07;;;3.73;;
11568;SDS011;5840;46.894;15.542;2024-02-21T16:47:03;4.03;;;3.73;;
11568;SDS011;5840;46.894;15.542;2024-02-21T16:49:30;4.47;;;3.87;;
11568;SDS011;5840;46.894;15.542;2024-02-21T16:51:56;4.77;;;3.90;;
11568;SDS011;5840;46.894;15.542;2024-02-21T16:54:22;3.80;;;3.50;;
11568;SDS011;5840;46.894;15.542;2024-02-21T16:56:50;3.90;;;3.60;;
11568;SDS011;5840;46.894;15.542;2024-02-21T16:59:17;4.60;;;3.60;;
11568;SDS011;5840;46.894;15.542;2024-02-21T17:06:47;4.40;;;4.00;;
11568;SDS011;5840;46.894;15.542;2024-02-21T17:09:13;4.07;;;3.77;;
11568;SDS011;5840;46.894;15.542;2024-02-21T17:11:42;3.90;;;3.50;;
11568;SDS011;5840;46.894;15.542;2024-02-21T17:14:09;4.43;;;4.03;;
11568;SDS011;5840;46.894;15.542;2024-02-21T17:19:01;4.50;;;4.10;;
11568;SDS011;5840;46.894;15.542;2024-02-21T17:21:27;4.53;;;4.13;;
11568;SDS011;5840;46.894;15.542;2024-02-21T17:26:31;4.10;;;3.80;;
11568;SDS011;5840;46.894;15.542;2024-02-21T17:28:57;4.23;;;3.93;;
11568;SDS011;5840;46.894;15.542;2024-02-21T17:31:26;4.10;;;3.80;;
11568;SDS011;5840;46.894;15.542;2024-02-21T17:33:52;4.30;;;3.90;;
11568;SDS011;5840;46.894;15.542;2024-02-21T17:36:19;4.80;;;4.20;;
11568;SDS011;5840;46.894;15.542;2024-02-21T17:38:45;5.17;;;4.00;;
11568;SDS011;5840;46.894;15.542;2024-02-21T17:41:13;4.60;;;4.20;;
11568;SDS011;5840;46.894;15.542;2024-02-21T17:43:41;4.30;;;3.90;;
11568;SDS011;5840;46.894;15.542;2024-02-21T17:51:10;4.33;;;4.03;;
11568;SDS011;5840;46.894;15.542;2024-02-21T17:53:36;4.87;;;4.47;;
11568;SDS011;5840;46.894;15.542;2024-02-21T17:56:03;5.00;;;4.60;;
11568;SDS011;5840;46.894;15.542;2024-02-21T17:58:30;5.40;;;4.90;;
11568;SDS011;5840;46.894;15.542;2024-02-21T18:00:57;4.90;;;4.50;;
11568;SDS011;5840;46.894;15.542;2024-02-21T18:03:24;5.20;;;4.80;;
11568;SDS011;5840;46.894;15.542;2024-02-21T18:05:54;5.57;;;5.00;;
11568;SDS011;5840;46.894;15.542;2024-02-21T18:08:23;5.20;;;4.80;;
11568;SDS011;5840;46.894;15.542;2024-02-21T18:15:52;5.30;;;4.80;;
11568;SDS011;5840;46.894;15.542;2024-02-21T18:18:19;5.00;;;4.60;;
11568;SDS011;5840;46.894;15.542;2024-02-21T18:20:45;5.30;;;4.90;;
11568;SDS011;5840;46.894;15.542;2024-02-21T18:23:11;6.10;;;5.60;;
11568;SDS011;5840;46.894;15.542;2024-02-21T18:25:37;7.80;;;7.10;;
11568;SDS011;5840;46.894;15.542;2024-02-21T18:28:05;6.80;;;6.20;;
11568;SDS011;5840;46.894;15.542;2024-02-21T18:30:31;6.50;;;5.90;;
11568;SDS011;5840;46.894;15.542;2024-02-21T18:32:58;5.77;;;5.30;;
11568;SDS011;5840;46.894;15.542;2024-02-21T18:42:51;5.73;;;5.23;;
11568;SDS011;5840;46.894;15.542;2024-02-21T18:45:17;5.80;;;5.20;;
11568;SDS011;5840;46.894;15.542;2024-02-21T18:47:43;5.60;;;5.10;;
11568;SDS011;5840;46.894;15.542;2024-02-21T18:50:10;5.90;;;5.37;;
11568;SDS011;5840;46.894;15.542;2024-02-21T18:52:37;5.80;;;5.30;;
11568;SDS011;5840;46.894;15.542;2024-02-21T18:55:04;5.50;;;5.10;;
11568;SDS011;5840;46.894;15.542;2024-02-21T18:57:30;5.53;;;5.03;;
11568;SDS011;5840;46.894;15.542;2024-02-21T18:59:59;5.57;;;5.07;;
11568;SDS011;5840;46.894;15.542;2024-02-21T19:07:35;5.50;;;5.00;;
11568;SDS011;5840;46.894;15.542;2024-02-21T19:10:02;5.10;;;4.70;;
11568;SDS011;5840;46.894;15.542;2024-02-21T19:12:29;7.90;;;7.20;;
11568;SDS011;5840;46.894;15.542;2024-02-21T19:14:57;7.57;;;6.87;;
11568;SDS011;5840;46.894;15.542;2024-02-21T19:17:24;7.57;;;6.87;;
11568;SDS011;5840;46.894;15.542;2024-02-21T19:19:51;9.87;;;5.80;;
11568;SDS011;5840;46.894;15.542;2024-02-21T19:22:17;6.53;;;6.03;;
11568;SDS011;5840;46.894;15.542;2024-02-21T19:24:44;6.73;;;6.13;;
11568;SDS011;5840;46.894;15.542;2024-02-21T19:34:40;6.10;;;5.47;;